createdAt,value
2023-04-01T00:01:08.099Z,16.25
2023-04-01T00:03:36.467Z,16.17
2023-04-01T00:06:04.092Z,14.98
2023-04-01T00:08:31.511Z,16.85
2023-04-01T00:10:58.818Z,17.27
2023-04-01T00:13:27.439Z,18.48
2023-04-01T00:15:56.184Z,18.67
2023-04-01T00:18:26.807Z,19.27
2023-04-01T00:20:54.334Z,16.33
2023-04-01T00:23:21.683Z,20.60
2023-04-01T00:25:49.576Z,24.23
2023-04-01T00:28:19.130Z,18.23
2023-04-01T00:30:46.814Z,18.23
2023-04-01T00:33:14.112Z,17.50
2023-04-01T00:35:41.654Z,21.52
2023-04-01T00:38:08.731Z,22.23
2023-04-01T00:40:47.329Z,17.25
2023-04-01T00:43:22.051Z,20.63
2023-04-01T00:45:50.661Z,22.63
2023-04-01T00:48:21.591Z,18.10
2023-04-01T00:51:28.189Z,17.52
2023-04-01T00:53:59.123Z,19.65
2023-04-01T00:56:36.683Z,17.57
2023-04-01T00:59:15.475Z,19.90
2023-04-01T01:01:42.765Z,22.10
2023-04-01T01:04:26.523Z,17.30
2023-04-01T01:07:14.778Z,22.83
2023-04-01T01:10:13.385Z,18.50
2023-04-01T01:13:09.811Z,19.47
2023-04-01T01:16:05.941Z,26.67
2023-04-01T01:18:55.168Z,21.83
2023-04-01T01:21:35.055Z,21.67
2023-04-01T01:24:31.213Z,21.43
2023-04-01T01:27:15.840Z,18.73
2023-04-01T01:30:37.381Z,22.80
2023-04-01T01:33:27.034Z,21.03
2023-04-01T01:35:57.802Z,21.00
2023-04-01T01:38:30.894Z,18.93
2023-04-01T01:41:00.261Z,21.23
2023-04-01T01:43:40.455Z,22.17
2023-04-01T01:46:15.454Z,20.43
2023-04-01T01:48:44.771Z,24.07
2023-04-01T01:51:11.793Z,21.00
2023-04-01T01:53:38.970Z,22.93
2023-04-01T01:56:07.032Z,24.50
2023-04-01T01:58:59.753Z,22.23
2023-04-01T02:01:32.603Z,24.33
2023-04-01T02:04:00.508Z,26.60
2023-04-01T02:06:33.468Z,24.20
2023-04-01T02:13:10.529Z,28.33
2023-04-01T02:15:43.868Z,28.07
2023-04-01T02:18:12.619Z,32.17
2023-04-01T02:20:41.527Z,24.47
2023-04-01T02:23:11.337Z,26.60
2023-04-01T02:25:40.520Z,27.47
2023-04-01T02:28:10.503Z,28.97
2023-04-01T02:30:39.882Z,28.90
2023-04-01T02:33:07.685Z,23.47
2023-04-01T02:35:39.237Z,27.07
2023-04-01T02:38:07.442Z,25.73
2023-04-01T02:40:51.301Z,29.98
2023-04-01T02:43:20.030Z,25.30
2023-04-01T02:45:47.071Z,28.58
2023-04-01T02:48:15.137Z,25.85
2023-04-01T02:50:42.481Z,24.30
2023-04-01T02:53:09.593Z,30.40
2023-04-01T02:55:37.028Z,28.43
2023-04-01T02:58:04.427Z,28.50
2023-04-01T03:00:32.029Z,22.53
2023-04-01T03:02:59.266Z,25.17
2023-04-01T03:05:26.737Z,22.97
2023-04-01T03:07:53.753Z,23.97
2023-04-01T03:10:21.765Z,23.20
2023-04-01T03:12:48.834Z,23.73
2023-04-01T03:15:16.318Z,23.57
2023-04-01T03:17:44.292Z,24.73
2023-04-01T03:20:12.722Z,27.37
2023-04-01T03:22:41.532Z,30.17
2023-04-01T03:25:10.873Z,28.23
2023-04-01T03:27:37.950Z,25.27
2023-04-01T03:30:07.457Z,25.57
2023-04-01T03:32:34.878Z,23.43
2023-04-01T03:35:01.994Z,25.63
2023-04-01T03:37:29.394Z,22.63
2023-04-01T03:39:56.460Z,27.67
2023-04-01T03:42:23.558Z,25.13
2023-04-01T03:44:50.882Z,24.17
2023-04-01T03:47:17.953Z,22.40
2023-04-01T03:49:44.974Z,22.60
2023-04-01T03:52:12.801Z,25.47
2023-04-01T03:54:39.880Z,18.57
2023-04-01T03:57:07.384Z,20.43
2023-04-01T03:59:35.297Z,21.33
2023-04-01T04:02:02.475Z,21.73
2023-04-01T04:04:29.903Z,21.03
2023-04-01T04:06:57.337Z,21.83
2023-04-01T04:09:24.675Z,22.03
2023-04-01T04:11:52.172Z,18.80
2023-04-01T04:14:19.387Z,22.60
2023-04-01T04:16:46.456Z,23.33
2023-04-01T04:19:13.483Z,19.20
2023-04-01T04:21:42.815Z,16.83
2023-04-01T04:24:11.058Z,18.63
2023-04-01T04:26:38.174Z,17.23
2023-04-01T04:29:05.407Z,20.03
2023-04-01T04:31:32.661Z,20.83
2023-04-01T04:34:02.074Z,20.85
2023-04-01T04:36:29.223Z,18.77
2023-04-01T04:38:56.270Z,18.30
2023-04-01T04:41:23.448Z,19.00
2023-04-01T04:43:56.991Z,17.43
2023-04-01T04:46:24.776Z,17.57
2023-04-01T04:48:52.094Z,17.80
2023-04-01T04:51:21.338Z,18.07
2023-04-01T04:53:50.786Z,20.87
2023-04-01T04:56:23.425Z,18.17
2023-04-01T04:58:50.516Z,17.60
2023-04-01T05:01:18.986Z,17.40
2023-04-01T05:03:46.716Z,13.13
2023-04-01T05:06:15.794Z,15.33
2023-04-01T05:08:45.431Z,14.27
2023-04-01T05:11:18.796Z,17.07
2023-04-01T05:13:47.173Z,12.93
2023-04-01T05:16:19.068Z,15.83
2023-04-01T05:18:47.115Z,16.97
2023-04-01T05:21:16.417Z,12.67
2023-04-01T05:23:44.264Z,12.00
2023-04-01T05:26:14.927Z,14.57
2023-04-01T05:28:42.530Z,12.33
2023-04-01T05:31:10.358Z,13.67
2023-04-01T05:33:37.454Z,11.20
2023-04-01T05:36:14.013Z,10.80
2023-04-01T05:38:41.959Z,11.30
2023-04-01T05:41:09.015Z,14.47
2023-04-01T05:43:40.733Z,13.60
2023-04-01T05:46:07.843Z,11.17
2023-04-01T05:48:36.125Z,10.73
2023-04-01T05:51:04.305Z,14.23
2023-04-01T05:53:31.596Z,12.47
2023-04-01T05:56:02.763Z,12.00
2023-04-01T05:58:29.790Z,12.05
2023-04-01T06:01:10.117Z,9.90
2023-04-01T06:03:38.602Z,10.65
2023-04-01T06:06:16.860Z,11.20
2023-04-01T06:08:44.494Z,16.95
2023-04-01T06:11:55.003Z,9.57
2023-04-01T06:14:58.032Z,10.60
2023-04-01T06:18:04.473Z,10.48
2023-04-01T06:20:40.463Z,10.20
2023-04-01T06:23:32.898Z,8.57
2023-04-01T06:26:17.965Z,8.65
2023-04-01T06:29:14.547Z,9.10
2023-04-01T06:32:16.986Z,6.35
2023-04-01T06:34:52.856Z,8.88
2023-04-01T06:37:44.744Z,6.07
2023-04-01T06:40:30.787Z,5.68
2023-04-01T06:43:34.194Z,6.68
2023-04-01T06:46:08.012Z,10.70
2023-04-01T06:48:56.119Z,6.88
2023-04-01T06:51:26.836Z,6.25
2023-04-01T06:54:21.329Z,4.47
2023-04-01T06:56:58.394Z,4.50
2023-04-01T06:59:33.286Z,3.47
2023-04-01T07:02:27.548Z,4.95
2023-04-01T07:04:57.719Z,5.15
2023-04-01T07:07:49.642Z,6.00
2023-04-01T07:10:31.574Z,6.93
2023-04-01T07:13:03.596Z,3.00
2023-04-01T07:15:41.228Z,4.20
2023-04-01T07:18:29.379Z,2.58
2023-04-01T07:20:58.026Z,4.22
2023-04-01T07:23:43.592Z,4.07
2023-04-01T07:26:24.760Z,4.03
2023-04-01T07:28:55.620Z,3.90
2023-04-01T07:31:57.196Z,4.80
2023-04-01T07:34:51.523Z,5.72
2023-04-01T07:37:46.766Z,6.82
2023-04-01T07:40:28.851Z,8.00
2023-04-01T07:43:18.367Z,9.05
2023-04-01T07:46:00.725Z,10.93
2023-04-01T07:49:06.343Z,11.50
2023-04-01T07:51:47.259Z,10.00
2023-04-01T07:55:00.716Z,10.52
2023-04-01T07:57:42.702Z,11.60
2023-04-01T08:01:07.835Z,13.13
2023-04-01T08:03:45.624Z,14.15
2023-04-01T08:06:28.758Z,13.93
2023-04-01T08:09:41.986Z,12.48
2023-04-01T08:12:19.426Z,15.60
2023-04-01T08:15:13.015Z,13.93
2023-04-01T08:18:07.336Z,15.88
2023-04-01T08:20:54.410Z,17.73
2023-04-01T08:23:38.660Z,18.35
2023-04-01T08:26:17.404Z,13.73
2023-04-01T08:29:01.092Z,16.38
2023-04-01T08:32:20.440Z,11.63
2023-04-01T08:34:54.018Z,12.68
2023-04-01T08:37:30.330Z,10.30
2023-04-01T08:40:41.776Z,9.88
2023-04-01T08:43:18.290Z,9.52
2023-04-01T08:46:14.396Z,10.80
2023-04-01T08:49:13.675Z,16.08
2023-04-01T08:52:08.284Z,11.18
2023-04-01T08:55:04.054Z,10.40
2023-04-01T08:58:22.567Z,8.85
2023-04-01T09:01:15.326Z,9.98
2023-04-01T09:04:31.965Z,9.88
2023-04-01T09:07:33.552Z,10.82
2023-04-01T09:10:31.004Z,9.25
2023-04-01T09:13:55.042Z,9.43
2023-04-01T09:16:24.730Z,11.18
2023-04-01T09:19:10.066Z,10.13
2023-04-01T09:21:53.950Z,9.07
2023-04-01T09:25:03.248Z,7.97
2023-04-01T09:27:38.416Z,7.28
2023-04-01T09:30:42.858Z,8.13
2023-04-01T09:33:57.643Z,10.48
2023-04-01T09:36:46.989Z,6.43
2023-04-01T09:39:54.608Z,6.63
2023-04-01T09:42:57.403Z,7.80
2023-04-01T09:45:55.117Z,8.98
2023-04-01T09:48:52.975Z,8.40
2023-04-01T09:51:38.589Z,6.90
2023-04-01T09:54:13.318Z,6.68
2023-04-01T09:57:17.158Z,6.82
2023-04-01T10:00:22.350Z,7.30
2023-04-01T10:03:45.611Z,6.07
2023-04-01T10:06:55.618Z,11.38
2023-04-01T10:10:00.504Z,6.88
2023-04-01T10:12:52.291Z,6.13
2023-04-01T10:15:40.983Z,7.22
2023-04-01T10:18:26.682Z,7.72
2023-04-01T10:21:08.086Z,7.25
2023-04-01T10:24:11.420Z,6.45
2023-04-01T10:26:56.272Z,5.47
2023-04-01T10:29:48.171Z,4.88
2023-04-01T10:33:03.451Z,4.50
2023-04-01T10:35:55.236Z,2.80
2023-04-01T10:38:37.155Z,2.70
2023-04-01T10:41:29.571Z,3.53
2023-04-01T10:44:08.387Z,7.03
2023-04-01T10:46:57.185Z,4.13
2023-04-01T10:50:22.851Z,4.65
2023-04-01T10:53:40.256Z,5.70
2023-04-01T10:56:34.568Z,4.30
2023-04-01T10:59:32.160Z,6.18
2023-04-01T11:02:31.093Z,6.28
2023-04-01T11:04:58.005Z,5.97
2023-04-01T11:08:07.337Z,5.82
2023-04-01T11:11:31.986Z,8.07
2023-04-01T11:14:39.041Z,6.55
2023-04-01T11:17:43.553Z,6.32
2023-04-01T11:20:22.440Z,4.95
2023-04-01T11:23:11.317Z,5.43
2023-04-01T11:26:20.202Z,4.15
2023-04-01T11:29:10.742Z,3.00
2023-04-01T11:32:04.130Z,4.50
2023-04-01T11:35:24.237Z,5.28
2023-04-01T11:38:15.174Z,5.25
2023-04-01T11:41:06.317Z,5.40
2023-04-01T11:43:50.534Z,3.10
2023-04-01T11:47:09.162Z,3.17
2023-04-01T11:49:48.541Z,3.53
2023-04-01T11:53:04.040Z,2.53
2023-04-01T11:55:50.370Z,3.33
2023-04-01T11:59:06.181Z,2.90
2023-04-01T12:02:22.100Z,3.08
2023-04-01T12:05:23.187Z,4.13
2023-04-01T12:08:37.730Z,2.92
2023-04-01T12:11:31.985Z,1.92
2023-04-01T12:14:14.690Z,4.15
2023-04-01T12:17:20.984Z,1.20
2023-04-01T12:20:12.863Z,3.03
2023-04-01T12:23:08.474Z,2.15
2023-04-01T12:26:31.694Z,1.77
2023-04-01T12:29:39.916Z,1.58
2023-04-01T12:32:26.664Z,1.63
2023-04-01T12:35:22.600Z,1.48
2023-04-01T12:38:13.802Z,2.28
2023-04-01T12:41:11.569Z,1.60
2023-04-01T12:44:17.160Z,1.40
2023-04-01T12:47:16.405Z,2.08
2023-04-01T12:50:08.344Z,3.47
2023-04-01T12:53:41.618Z,1.45
2023-04-01T12:56:33.370Z,1.63
2023-04-01T12:59:37.710Z,1.65
2023-04-01T13:02:19.594Z,1.50
2023-04-01T13:05:15.421Z,4.68
2023-04-01T13:08:29.564Z,3.13
2023-04-01T13:11:33.701Z,8.80
2023-04-01T13:14:31.193Z,11.70
2023-04-01T13:17:34.981Z,6.97
2023-04-01T13:20:43.819Z,5.20
2023-04-01T13:23:59.881Z,4.22
2023-04-01T13:27:11.569Z,4.70
2023-04-01T13:29:55.957Z,4.40
2023-04-01T13:32:43.236Z,6.70
2023-04-01T13:35:23.329Z,5.43
2023-04-01T13:38:26.534Z,3.70
2023-04-01T13:41:11.969Z,2.30
2023-04-01T13:43:50.700Z,4.82
2023-04-01T13:46:54.606Z,2.65
2023-04-01T13:50:01.481Z,3.15
2023-04-01T13:52:49.907Z,3.17
2023-04-01T13:56:10.086Z,4.45
2023-04-01T13:58:52.993Z,4.00
2023-04-01T14:02:03.752Z,3.58
2023-04-01T14:05:32.475Z,3.17
2023-04-01T14:08:36.275Z,4.60
2023-04-01T14:11:40.802Z,2.88
2023-04-01T14:14:56.331Z,2.17
2023-04-01T14:17:50.618Z,2.30
2023-04-01T14:20:41.836Z,5.40
2023-04-01T14:23:32.736Z,4.50
2023-04-01T14:26:23.944Z,3.30
2023-04-01T14:29:27.239Z,2.80
2023-04-01T14:33:01.170Z,3.80
2023-04-01T14:36:06.315Z,3.08
2023-04-01T14:38:59.800Z,2.92
2023-04-01T14:41:51.281Z,2.22
2023-04-01T14:45:14.857Z,3.63
2023-04-01T14:48:18.177Z,2.60
2023-04-01T14:50:53.268Z,2.75
2023-04-01T14:53:34.918Z,5.32
2023-04-01T14:56:03.945Z,4.57
2023-04-01T14:59:00.572Z,4.70
2023-04-01T15:01:43.477Z,2.80
2023-04-01T15:04:29.063Z,4.97
2023-04-01T15:07:29.262Z,6.20
2023-04-01T15:10:36.182Z,6.00
2023-04-01T15:13:30.503Z,3.78
2023-04-01T15:16:55.825Z,3.50
2023-04-01T15:20:00.952Z,4.13
2023-04-01T15:22:55.309Z,3.10
2023-04-01T15:25:56.403Z,3.97
2023-04-01T15:28:43.756Z,3.55
2023-04-01T15:31:39.181Z,6.25
2023-04-01T15:34:58.314Z,5.07
2023-04-01T15:37:57.433Z,5.68
2023-04-01T15:40:24.310Z,3.10
2023-04-01T15:43:11.236Z,3.40
2023-04-01T15:45:47.425Z,3.03
2023-04-01T15:48:55.774Z,2.20
2023-04-01T15:51:34.676Z,3.45
2023-04-01T15:54:38.077Z,3.78
2023-04-01T15:57:47.562Z,3.53
2023-04-01T16:00:55.989Z,2.97
2023-04-01T16:03:51.750Z,3.03
2023-04-01T16:06:46.905Z,4.07
2023-04-01T16:09:33.571Z,3.47
2023-04-01T16:12:33.608Z,3.33
2023-04-01T16:15:18.241Z,3.47
2023-04-01T16:18:03.684Z,4.57
2023-04-01T16:20:52.607Z,5.10
2023-04-01T16:23:41.326Z,3.63
2023-04-01T16:26:35.076Z,3.43
2023-04-01T16:29:24.304Z,3.03
2023-04-01T16:32:30.428Z,5.33
2023-04-01T16:35:25.176Z,3.00
2023-04-01T16:38:06.053Z,3.77
2023-04-01T16:41:04.891Z,3.37
2023-04-01T16:43:47.660Z,3.13
2023-04-01T16:46:36.208Z,3.10
2023-04-01T16:49:12.290Z,4.30
2023-04-01T16:51:45.971Z,4.53
2023-04-01T16:54:53.005Z,5.33
2023-04-01T16:57:31.564Z,3.47
2023-04-01T17:00:49.474Z,3.90
2023-04-01T17:03:46.863Z,6.40
2023-04-01T17:06:45.157Z,3.27
2023-04-01T17:09:23.384Z,9.87
2023-04-01T17:12:14.103Z,9.87
2023-04-01T17:15:37.004Z,4.97
2023-04-01T17:18:24.426Z,5.50
2023-04-01T17:21:17.342Z,5.90
2023-04-01T17:24:24.889Z,6.80
2023-04-01T17:27:44.461Z,6.33
2023-04-01T17:30:36.905Z,5.03
2023-04-01T17:33:15.663Z,6.30
2023-04-01T17:36:23.429Z,9.90
2023-04-01T17:39:15.127Z,6.37
2023-04-01T17:42:01.704Z,7.97
2023-04-01T17:44:34.679Z,5.70
2023-04-01T17:47:07.412Z,7.67
2023-04-01T17:49:45.775Z,6.17
2023-04-01T17:52:43.716Z,5.57
2023-04-01T17:55:46.353Z,5.87
2023-04-01T17:58:30.140Z,7.00
2023-04-01T18:01:21.158Z,6.57
2023-04-01T18:04:09.223Z,7.93
2023-04-01T18:06:53.240Z,9.40
2023-04-01T18:09:57.861Z,7.73
2023-04-01T18:12:52.705Z,7.57
2023-04-01T18:15:43.582Z,7.33
2023-04-01T18:18:40.516Z,8.33
2023-04-01T18:21:44.132Z,9.40
2023-04-01T18:24:22.109Z,7.50
2023-04-01T18:27:30.224Z,9.17
2023-04-01T18:30:30.787Z,9.33
2023-04-01T18:33:20.897Z,10.80
2023-04-01T18:36:17.691Z,9.37
2023-04-01T18:38:57.152Z,9.43
2023-04-01T18:41:43.622Z,12.47
2023-04-01T18:44:54.362Z,12.17
2023-04-01T18:47:44.596Z,7.73
2023-04-01T18:50:35.761Z,10.23
2023-04-01T18:53:42.458Z,8.97
2023-04-01T18:56:36.999Z,9.27
2023-04-01T18:59:57.941Z,9.77
2023-04-01T19:02:49.595Z,8.63
2023-04-01T19:05:39.270Z,9.53
2023-04-01T19:08:41.268Z,8.93
2023-04-01T19:11:29.233Z,9.90
2023-04-01T19:14:09.262Z,8.57
2023-04-01T19:16:44.762Z,10.37
2023-04-01T19:19:20.759Z,8.43
2023-04-01T19:21:54.004Z,9.77
2023-04-01T19:24:37.461Z,7.30
2023-04-01T19:27:34.265Z,9.93
2023-04-01T19:30:28.552Z,11.07
2023-04-01T19:33:21.875Z,10.83
2023-04-01T19:35:57.010Z,9.77
2023-04-01T19:38:40.255Z,9.23
2023-04-01T19:41:26.450Z,7.67
2023-04-01T19:44:19.506Z,8.23
2023-04-01T19:47:13.503Z,7.70
2023-04-01T19:50:08.142Z,7.57
2023-04-01T19:52:41.173Z,10.57
2023-04-01T19:55:50.601Z,10.60
2023-04-01T19:58:27.922Z,8.23
2023-04-01T20:01:00.191Z,8.03
2023-04-01T20:03:43.906Z,10.60
2023-04-01T20:06:22.916Z,8.17
2023-04-01T20:09:34.876Z,8.27
2023-04-01T20:12:36.705Z,12.73
2023-04-01T20:15:37.738Z,10.97
2023-04-01T20:18:19.340Z,6.60
2023-04-01T20:21:19.666Z,7.00
2023-04-01T20:24:00.428Z,7.73
2023-04-01T20:26:34.814Z,9.57
2023-04-01T20:29:23.133Z,7.77
2023-04-01T20:32:25.256Z,7.70
2023-04-01T20:34:55.009Z,9.10
2023-04-01T20:37:48.426Z,8.97
2023-04-01T20:40:38.778Z,8.40
2023-04-01T20:43:52.225Z,6.53
2023-04-01T20:46:40.535Z,5.93
2023-04-01T20:49:32.574Z,7.63
2023-04-01T20:52:30.562Z,8.17
2023-04-01T20:55:47.689Z,7.83
2023-04-01T20:58:36.311Z,6.83
2023-04-01T21:01:15.312Z,6.73
2023-04-01T21:04:11.558Z,6.67
2023-04-01T21:07:05.553Z,6.53
2023-04-01T21:10:18.074Z,5.33
2023-04-01T21:13:06.133Z,6.27
2023-04-01T21:16:19.050Z,7.00
2023-04-01T21:19:17.332Z,8.33
2023-04-01T21:22:20.516Z,5.13
2023-04-01T21:25:24.482Z,6.17
2023-04-01T21:28:38.276Z,5.83
2023-04-01T21:31:37.769Z,5.63
2023-04-01T21:34:44.017Z,6.30
2023-04-01T21:37:32.094Z,6.57
2023-04-01T21:40:35.490Z,8.93
2023-04-01T21:43:35.550Z,8.47
2023-04-01T21:46:08.433Z,6.43
2023-04-01T21:49:01.033Z,7.07
2023-04-01T21:51:56.618Z,5.77
2023-04-01T21:54:41.678Z,6.77
2023-04-01T21:57:35.805Z,7.87
2023-04-01T22:00:16.849Z,8.83
2023-04-01T22:02:55.789Z,12.00
2023-04-01T22:06:01.574Z,9.03
2023-04-01T22:08:46.492Z,12.07
2023-04-01T22:11:37.656Z,9.70
2023-04-01T22:14:16.126Z,8.67
2023-04-01T22:17:04.627Z,7.90
2023-04-01T22:20:11.260Z,10.83
2023-04-01T22:23:16.866Z,9.60
2023-04-01T22:25:49.619Z,5.83
2023-04-01T22:28:37.997Z,8.00
2023-04-01T22:31:09.145Z,8.63
2023-04-01T22:33:50.358Z,8.57
2023-04-01T22:37:02.046Z,7.30
2023-04-01T22:40:22.126Z,8.37
2023-04-01T22:43:00.869Z,9.07
2023-04-01T22:46:04.898Z,8.57
2023-04-01T22:48:48.997Z,7.83
2023-04-01T22:51:53.121Z,8.20
2023-04-01T22:54:36.305Z,7.60
2023-04-01T22:57:21.113Z,9.53
2023-04-01T23:00:21.653Z,9.93
2023-04-01T23:03:17.542Z,9.37
2023-04-01T23:05:54.190Z,8.47
2023-04-01T23:09:06.108Z,9.33
2023-04-01T23:11:43.504Z,8.20
2023-04-01T23:14:58.114Z,9.47
2023-04-01T23:17:54.490Z,6.33
2023-04-01T23:21:07.216Z,6.83
2023-04-01T23:23:44.039Z,6.57
2023-04-01T23:26:56.536Z,10.57
2023-04-01T23:29:24.472Z,8.53
2023-04-01T23:32:05.360Z,6.23
2023-04-01T23:34:37.136Z,5.33
2023-04-01T23:37:13.072Z,7.53
2023-04-01T23:39:46.258Z,7.03
2023-04-01T23:42:39.093Z,5.63
2023-04-01T23:45:21.009Z,6.40
2023-04-01T23:47:51.385Z,6.47
2023-04-01T23:50:23.991Z,7.37
2023-04-01T23:53:15.530Z,8.23
2023-04-01T23:55:43.580Z,8.80
2023-04-01T23:58:12.048Z,10.53
